createdAt,value
2018-08-07T00:00:38.996Z,9.75
2018-08-07T00:03:09.834Z,8.50
2018-08-07T00:05:40.825Z,9.50
2018-08-07T00:08:11.222Z,9.00
2018-08-07T00:10:41.269Z,10.00
2018-08-07T00:13:13.510Z,9.00
2018-08-07T00:15:46.314Z,10.00
2018-08-07T00:18:16.798Z,8.75
2018-08-07T00:20:48.527Z,9.25
2018-08-07T00:23:19.663Z,9.00
2018-08-07T00:25:50.244Z,8.25
2018-08-07T00:28:21.571Z,10.50
2018-08-07T00:30:51.944Z,9.75
2018-08-07T00:33:23.824Z,9.50
2018-08-07T00:35:54.258Z,10.00
2018-08-07T00:38:25.276Z,9.00
2018-08-07T00:40:55.464Z,8.00
2018-08-07T00:43:26.622Z,10.75
2018-08-07T00:45:57.296Z,9.25
2018-08-07T00:48:27.757Z,10.25
2018-08-07T00:50:59.266Z,11.00
2018-08-07T00:53:30.697Z,10.25
2018-08-07T00:56:02.103Z,10.00
2018-08-07T00:58:32.760Z,9.50
2018-08-07T01:01:04.308Z,8.75
2018-08-07T01:03:35.368Z,8.25
2018-08-07T01:06:07.884Z,9.00
2018-08-07T01:08:38.761Z,8.50
2018-08-07T01:11:09.723Z,9.00
2018-08-07T01:13:40.739Z,11.00
2018-08-07T01:16:12.258Z,9.25
2018-08-07T01:18:43.053Z,9.00
2018-08-07T01:21:13.395Z,9.00
2018-08-07T01:23:43.930Z,10.25
2018-08-07T01:26:15.947Z,10.00
2018-08-07T01:28:46.662Z,9.25
2018-08-07T01:31:17.491Z,9.00
2018-08-07T01:33:47.632Z,9.00
2018-08-07T01:36:18.585Z,9.00
2018-08-07T01:38:50.493Z,11.00
2018-08-07T01:41:20.854Z,10.00
2018-08-07T01:43:52.456Z,11.00
2018-08-07T01:46:24.526Z,10.25
2018-08-07T01:48:57.079Z,11.50
2018-08-07T01:51:29.229Z,10.75
2018-08-07T01:54:00.291Z,10.25
2018-08-07T01:56:30.943Z,12.00
2018-08-07T01:59:02.072Z,11.50
2018-08-07T02:01:32.930Z,11.00
2018-08-07T02:04:03.545Z,9.00
2018-08-07T02:06:34.262Z,11.75
2018-08-07T02:09:04.670Z,13.50
2018-08-07T02:11:37.283Z,11.50
2018-08-07T02:14:07.916Z,11.00
2018-08-07T02:16:38.964Z,11.25
2018-08-07T02:19:09.487Z,12.25
2018-08-07T02:21:39.926Z,10.50
2018-08-07T02:24:10.853Z,11.75
2018-08-07T02:26:41.833Z,10.00
2018-08-07T02:29:12.303Z,13.50
2018-08-07T02:31:43.240Z,10.25
2018-08-07T02:34:13.932Z,10.00
2018-08-07T02:36:44.500Z,11.00
2018-08-07T02:39:14.647Z,9.00
2018-08-07T02:41:45.620Z,11.00
2018-08-07T02:44:15.923Z,11.50
2018-08-07T02:46:47.678Z,11.25
2018-08-07T02:49:18.572Z,10.75
2018-08-07T02:51:49.738Z,12.00
2018-08-07T02:54:21.044Z,9.50
2018-08-07T02:56:51.424Z,11.25
2018-08-07T02:59:21.821Z,10.75
2018-08-07T03:01:53.421Z,13.00
2018-08-07T03:04:23.740Z,12.25
2018-08-07T03:06:54.348Z,9.50
2018-08-07T03:09:30.788Z,10.75
2018-08-07T03:12:02.026Z,11.50
2018-08-07T03:14:32.363Z,11.25
2018-08-07T03:17:02.828Z,9.75
2018-08-07T03:19:32.944Z,10.25
2018-08-07T03:22:03.175Z,12.50
2018-08-07T03:24:34.816Z,11.50
2018-08-07T03:27:05.445Z,12.25
2018-08-07T03:29:35.760Z,10.00
2018-08-07T03:32:06.712Z,10.75
2018-08-07T03:34:37.675Z,9.75
2018-08-07T03:37:07.994Z,14.00
2018-08-07T03:39:39.470Z,13.75
2018-08-07T03:42:10.315Z,13.25
2018-08-07T03:44:42.860Z,12.75
2018-08-07T03:47:25.503Z,14.00
2018-08-07T03:49:57.525Z,13.00
2018-08-07T03:52:27.974Z,14.00
2018-08-07T03:54:58.416Z,13.50
2018-08-07T03:57:29.727Z,13.25
2018-08-07T04:00:00.111Z,13.75
2018-08-07T04:02:32.539Z,13.75
2018-08-07T04:05:02.905Z,13.00
2018-08-07T04:07:33.177Z,13.75
2018-08-07T04:10:04.382Z,13.75
2018-08-07T04:12:34.882Z,13.00
2018-08-07T04:15:13.032Z,13.50
2018-08-07T04:17:44.216Z,16.25
2018-08-07T04:20:19.612Z,13.00
2018-08-07T04:22:50.224Z,14.00
2018-08-07T04:25:20.557Z,13.00
2018-08-07T04:27:51.814Z,15.25
2018-08-07T04:30:22.908Z,13.75
2018-08-07T04:32:54.979Z,14.00
2018-08-07T04:35:25.281Z,12.50
2018-08-07T04:37:56.513Z,11.75
2018-08-07T04:40:28.009Z,15.00
2018-08-07T04:43:00.294Z,12.25
2018-08-07T04:45:31.445Z,11.75
2018-08-07T04:48:02.035Z,13.50
2018-08-07T04:50:32.341Z,15.75
2018-08-07T04:53:03.547Z,13.00
2018-08-07T04:55:33.949Z,13.25
2018-08-07T04:58:05.294Z,15.25
2018-08-07T05:03:42.144Z,13.75
2018-08-07T05:06:12.958Z,15.25
2018-08-07T05:08:44.338Z,14.00
2018-08-07T05:13:59.060Z,14.00
2018-08-07T05:16:29.913Z,15.75
2018-08-07T05:19:02.315Z,16.00
2018-08-07T05:21:34.341Z,16.25
2018-08-07T05:24:05.822Z,16.00
2018-08-07T05:26:37.423Z,15.25
2018-08-07T05:29:08.126Z,19.75
2018-08-07T05:31:39.091Z,17.00
2018-08-07T05:34:09.844Z,18.50
2018-08-07T05:36:41.131Z,15.75
2018-08-07T05:39:12.222Z,17.75
2018-08-07T05:41:43.286Z,17.25
2018-08-07T05:44:14.860Z,16.00
2018-08-07T05:46:47.011Z,18.00
2018-08-07T05:49:19.142Z,16.75
2018-08-07T05:51:49.982Z,16.75
2018-08-07T05:54:21.524Z,15.50
2018-08-07T05:56:53.185Z,17.25
2018-08-07T05:59:24.483Z,18.00
2018-08-07T06:01:57.164Z,16.00
2018-08-07T06:04:28.516Z,15.25
2018-08-07T06:07:00.234Z,15.75
2018-08-07T06:09:34.128Z,16.00
2018-08-07T06:12:05.789Z,13.25
2018-08-07T06:14:36.892Z,15.25
2018-08-07T06:17:12.963Z,22.00
2018-08-07T06:19:43.718Z,15.75
2018-08-07T06:22:16.641Z,16.00
2018-08-07T06:24:50.324Z,17.25
2018-08-07T06:27:21.247Z,14.25
2018-08-07T06:29:52.417Z,15.50
2018-08-07T06:32:25.431Z,18.75
2018-08-07T06:34:57.718Z,17.50
2018-08-07T06:37:28.865Z,17.00
2018-08-07T06:39:59.826Z,19.50
2018-08-07T06:42:31.211Z,16.00
2018-08-07T06:45:06.352Z,16.00
2018-08-07T06:47:39.579Z,17.00
2018-08-07T06:50:15.099Z,15.00
2018-08-07T06:52:47.482Z,19.50
2018-08-07T06:55:19.924Z,17.50
2018-08-07T06:57:53.988Z,18.00
2018-08-07T07:00:31.689Z,16.75
2018-08-07T07:03:03.931Z,17.00
2018-08-07T07:05:35.602Z,14.50
2018-08-07T07:08:06.788Z,15.00
2018-08-07T07:10:38.415Z,16.25
2018-08-07T07:13:12.539Z,15.50
2018-08-07T07:15:46.043Z,15.00
2018-08-07T07:18:22.009Z,16.25
2018-08-07T07:20:57.386Z,15.25
2018-08-07T07:23:31.634Z,15.25
2018-08-07T07:26:03.641Z,16.50
2018-08-07T07:31:12.428Z,15.50
2018-08-07T07:33:42.883Z,14.25
2018-08-07T07:36:14.715Z,15.00
2018-08-07T07:38:47.624Z,16.50
2018-08-07T07:41:20.954Z,16.00
2018-08-07T07:43:57.611Z,14.50
2018-08-07T07:46:29.296Z,13.00
2018-08-07T07:49:02.652Z,14.50
2018-08-07T07:51:34.297Z,13.50
2018-08-07T07:54:05.530Z,13.50
2018-08-07T07:56:36.345Z,13.00
2018-08-07T07:59:11.246Z,13.00
2018-08-07T08:01:48.084Z,14.00
2018-08-07T08:04:20.084Z,13.00
2018-08-07T08:06:50.790Z,17.00
2018-08-07T08:09:22.108Z,15.00
2018-08-07T08:11:52.571Z,13.00
2018-08-07T08:14:31.242Z,14.50
2018-08-07T08:17:02.636Z,14.00
2018-08-07T08:19:34.475Z,14.75
2018-08-07T08:22:07.144Z,12.75
2018-08-07T08:24:39.154Z,16.00
2018-08-07T08:27:13.106Z,13.25
2018-08-07T08:29:48.189Z,15.25
2018-08-07T08:32:19.603Z,13.00
2018-08-07T08:34:50.531Z,13.75
2018-08-07T08:37:21.505Z,14.00
2018-08-07T08:39:53.889Z,13.00
2018-08-07T08:42:25.225Z,13.00
2018-08-07T08:44:55.899Z,11.50
2018-08-07T08:47:28.619Z,13.75
2018-08-07T08:50:01.195Z,12.75
2018-08-07T08:52:32.994Z,14.25
2018-08-07T08:55:14.376Z,14.50
2018-08-07T08:57:51.434Z,17.25
2018-08-07T09:00:27.116Z,14.00
2018-08-07T09:03:02.178Z,14.00
2018-08-07T09:05:34.317Z,13.00
2018-08-07T09:08:06.317Z,13.75
2018-08-07T09:10:39.232Z,19.25
2018-08-07T09:13:10.708Z,14.00
2018-08-07T09:15:42.136Z,15.00
2018-08-07T09:18:13.080Z,15.25
2018-08-07T09:20:43.451Z,12.75
2018-08-07T09:23:13.813Z,14.00
2018-08-07T09:25:49.063Z,12.75
2018-08-07T09:28:19.852Z,13.25
2018-08-07T09:30:50.931Z,14.25
2018-08-07T09:36:22.057Z,15.00
2018-08-07T09:38:55.004Z,17.00
2018-08-07T09:41:34.051Z,13.50
2018-08-07T09:44:05.410Z,14.00
2018-08-07T09:46:37.982Z,13.00
2018-08-07T09:49:11.929Z,14.75
2018-08-07T09:54:37.481Z,15.00
2018-08-07T09:57:20.424Z,13.25
2018-08-07T09:59:59.109Z,13.25
2018-08-07T10:02:38.105Z,12.00
2018-08-07T10:05:10.615Z,11.25
2018-08-07T10:07:48.868Z,11.25
2018-08-07T10:10:23.458Z,14.00
2018-08-07T10:12:58.532Z,13.25
2018-08-07T10:15:30.679Z,12.00
2018-08-07T10:18:02.222Z,12.00
2018-08-07T10:20:35.628Z,11.75
2018-08-07T10:23:08.252Z,13.00
2018-08-07T10:25:42.252Z,11.50
2018-08-07T10:28:31.584Z,12.50
2018-08-07T10:31:06.131Z,11.50
2018-08-07T10:33:37.838Z,15.50
2018-08-07T10:36:15.242Z,11.50
2018-08-07T10:38:49.523Z,12.00
2018-08-07T10:41:26.659Z,11.75
2018-08-07T10:44:00.705Z,12.00
2018-08-07T10:46:31.686Z,12.25
2018-08-07T10:49:03.701Z,11.00
2018-08-07T10:51:38.007Z,11.25
2018-08-07T10:54:12.795Z,12.00
2018-08-07T10:56:46.891Z,12.00
2018-08-07T11:01:56.834Z,12.00
2018-08-07T11:04:30.765Z,14.50
2018-08-07T11:07:11.057Z,11.00
2018-08-07T11:09:43.360Z,11.00
2018-08-07T11:12:17.471Z,13.25
2018-08-07T11:14:49.322Z,11.25
2018-08-07T11:17:26.248Z,13.25
2018-08-07T11:19:59.510Z,12.25
2018-08-07T11:22:32.241Z,12.00
2018-08-07T11:25:06.279Z,13.25
2018-08-07T11:27:37.047Z,12.00
2018-08-07T11:30:19.671Z,11.50
2018-08-07T11:32:58.236Z,12.75
2018-08-07T11:35:30.733Z,11.00
2018-08-07T11:38:02.492Z,11.50
2018-08-07T11:40:34.054Z,11.00
2018-08-07T11:43:10.258Z,9.25
2018-08-07T11:45:41.401Z,14.50
2018-08-07T11:48:15.710Z,11.00
2018-08-07T11:50:48.797Z,11.00
2018-08-07T11:53:20.671Z,13.00
2018-08-07T11:56:30.548Z,12.50
2018-08-07T11:59:03.440Z,11.00
2018-08-07T12:01:34.542Z,11.00
2018-08-07T12:04:05.355Z,10.75
2018-08-07T12:06:41.579Z,12.25
2018-08-07T12:09:15.673Z,12.50
2018-08-07T12:11:47.494Z,12.00
2018-08-07T12:14:20.584Z,11.00
2018-08-07T12:16:52.442Z,12.50
2018-08-07T12:19:25.575Z,10.75
2018-08-07T12:21:57.177Z,11.75
2018-08-07T12:24:29.617Z,12.00
2018-08-07T12:27:02.960Z,13.00
2018-08-07T12:29:34.128Z,13.50
2018-08-07T12:32:06.044Z,14.00
2018-08-07T12:34:40.431Z,13.00
2018-08-07T12:37:12.977Z,12.50
2018-08-07T12:39:44.265Z,11.75
2018-08-07T12:42:15.016Z,10.00
2018-08-07T12:44:45.445Z,13.50
2018-08-07T12:47:16.401Z,13.75
2018-08-07T12:49:48.560Z,14.75
2018-08-07T12:52:18.889Z,13.50
2018-08-07T12:54:50.599Z,13.00
2018-08-07T12:57:21.911Z,14.50
2018-08-07T12:59:56.307Z,14.75
2018-08-07T13:02:28.296Z,12.25
2018-08-07T13:05:01.129Z,13.50
2018-08-07T13:07:34.614Z,14.25
2018-08-07T13:10:17.721Z,13.50
2018-08-07T13:12:53.465Z,13.00
2018-08-07T13:15:28.449Z,14.25
2018-08-07T13:17:59.742Z,12.50
2018-08-07T13:20:38.714Z,12.50
2018-08-07T13:23:15.970Z,14.00
2018-08-07T13:25:49.737Z,12.00
2018-08-07T13:28:38.390Z,12.75
2018-08-07T13:31:18.557Z,11.00
2018-08-07T13:37:07.163Z,13.25
2018-08-07T13:39:37.063Z,10.75
2018-08-07T13:42:11.287Z,11.00
2018-08-07T13:44:45.253Z,11.75
2018-08-07T13:47:16.281Z,11.50
2018-08-07T13:49:45.870Z,12.50
2018-08-07T13:52:16.298Z,10.25
2018-08-07T18:24:58.430Z,10.50
2018-08-07T18:27:38.298Z,12.25
2018-08-07T18:30:17.975Z,12.00
2018-08-07T18:32:49.535Z,12.50
2018-08-07T18:35:27.905Z,12.00
2018-08-07T18:38:00.269Z,20.25
2018-08-07T18:40:30.471Z,13.00
2018-08-07T18:43:08.863Z,12.00
2018-08-07T18:45:41.667Z,11.50
2018-08-07T18:48:13.814Z,12.50
2018-08-07T18:50:44.366Z,14.75
2018-08-07T18:53:14.368Z,12.75
2018-08-07T18:55:47.317Z,14.50
2018-08-07T18:58:17.397Z,12.00
2018-08-07T19:00:48.354Z,11.50
2018-08-07T19:03:23.878Z,10.75
2018-08-07T19:05:53.378Z,11.00
2018-08-07T19:08:24.984Z,11.75
2018-08-07T19:10:54.468Z,11.50
2018-08-07T19:13:27.390Z,11.00
2018-08-07T19:15:58.285Z,15.50
2018-08-07T19:18:29.669Z,15.00
2018-08-07T19:21:19.035Z,13.75
2018-08-07T19:23:49.073Z,14.00
2018-08-07T19:26:23.465Z,12.00
2018-08-07T19:28:54.371Z,13.00
2018-08-07T19:31:24.928Z,13.75
2018-08-07T19:33:57.965Z,14.75
2018-08-07T19:36:31.124Z,13.00
2018-08-07T19:39:00.674Z,13.75
2018-08-07T19:41:32.688Z,12.00
2018-08-07T19:44:03.836Z,13.00
2018-08-07T19:46:37.386Z,13.75
2018-08-07T19:49:09.899Z,12.00
2018-08-07T19:51:42.063Z,12.00
2018-08-07T19:54:16.853Z,13.25
2018-08-07T19:56:55.940Z,12.75
2018-08-07T19:59:26.201Z,13.75
2018-08-07T20:02:00.043Z,12.75
2018-08-07T20:04:35.249Z,13.00
2018-08-07T20:07:07.295Z,13.75
2018-08-07T20:09:42.432Z,13.00
2018-08-07T20:12:13.090Z,14.25
2018-08-07T20:17:31.716Z,13.00
2018-08-07T20:20:02.846Z,15.25
2018-08-07T20:22:33.908Z,15.25
2018-08-07T20:25:04.998Z,14.50
2018-08-07T20:27:41.301Z,15.00
2018-08-07T20:30:17.304Z,15.00
2018-08-07T20:32:54.709Z,14.50
2018-08-07T20:35:44.203Z,13.25
2018-08-07T20:38:18.314Z,13.00
2018-08-07T20:40:49.997Z,13.00
2018-08-07T20:43:22.159Z,13.25
2018-08-07T20:45:54.354Z,13.25
2018-08-07T20:48:33.338Z,14.00
2018-08-07T20:51:04.794Z,13.75
2018-08-07T20:53:47.513Z,14.00
2018-08-07T20:56:29.801Z,13.75
2018-08-07T20:59:12.017Z,15.75
2018-08-07T21:01:49.347Z,14.00
2018-08-07T21:04:23.237Z,14.00
2018-08-07T21:06:55.024Z,16.75
2018-08-07T21:09:28.355Z,14.75
2018-08-07T21:12:05.857Z,13.25
2018-08-07T21:14:37.298Z,13.00
2018-08-07T21:17:10.544Z,13.50
2018-08-07T21:19:44.672Z,12.00
2018-08-07T21:22:16.504Z,16.25
2018-08-07T21:25:00.117Z,15.75
2018-08-07T21:27:32.297Z,13.75
2018-08-07T21:32:54.624Z,13.00
2018-08-07T21:35:27.680Z,15.50
2018-08-07T21:38:12.235Z,13.00
2018-08-07T21:40:43.942Z,15.50
2018-08-07T21:43:15.794Z,14.00
2018-08-07T21:45:51.687Z,14.00
2018-08-07T21:48:24.338Z,15.00
2018-08-07T21:51:03.175Z,13.75
2018-08-07T21:53:36.313Z,14.50
2018-08-07T21:56:14.764Z,13.00
2018-08-07T21:58:46.503Z,13.00
2018-08-07T22:01:23.180Z,13.50
2018-08-07T22:03:57.245Z,16.25
2018-08-07T22:06:29.994Z,13.75
2018-08-07T22:09:01.409Z,14.75
2018-08-07T22:11:34.406Z,14.50
2018-08-07T22:14:09.267Z,15.50
2018-08-07T22:16:46.365Z,15.50
2018-08-07T22:19:18.295Z,15.00
2018-08-07T22:21:52.063Z,14.00
2018-08-07T22:24:21.970Z,17.75
2018-08-07T22:26:53.808Z,17.50
2018-08-07T22:29:28.345Z,15.50
2018-08-07T22:32:10.860Z,15.25
2018-08-07T22:34:41.008Z,14.25
2018-08-07T22:37:10.886Z,14.25
2018-08-07T22:39:43.601Z,16.75
2018-08-07T22:42:16.293Z,16.25
2018-08-07T22:45:08.114Z,15.00
2018-08-07T22:47:40.241Z,18.50
2018-08-07T22:50:19.788Z,16.00
2018-08-07T22:52:54.679Z,15.00
2018-08-07T22:55:26.844Z,14.00
2018-08-07T22:57:59.384Z,17.00
2018-08-07T23:00:29.564Z,17.25
2018-08-07T23:03:02.328Z,17.00
2018-08-07T23:05:41.616Z,17.00
2018-08-07T23:08:12.674Z,17.00
2018-08-07T23:10:43.824Z,22.00
2018-08-07T23:13:14.409Z,18.00
2018-08-07T23:15:46.590Z,19.50
2018-08-07T23:18:21.050Z,18.75
2018-08-07T23:20:52.060Z,18.00
2018-08-07T23:23:24.124Z,18.75
2018-08-07T23:25:55.986Z,20.75
2018-08-07T23:28:25.708Z,18.00
2018-08-07T23:30:55.487Z,19.25
2018-08-07T23:33:29.259Z,18.50
2018-08-07T23:36:00.322Z,21.50
2018-08-07T23:38:30.823Z,19.00
2018-08-07T23:41:00.425Z,21.00
2018-08-07T23:43:33.649Z,24.25
2018-08-07T23:46:04.656Z,23.75
2018-08-07T23:48:35.524Z,23.50
2018-08-07T23:51:05.941Z,23.50
2018-08-07T23:53:35.767Z,25.00
2018-08-07T23:56:06.601Z,24.25
2018-08-07T23:58:42.341Z,25.75
